Relevés horaires Bierset (Belgique)


Relevés horaires à Bierset - Jeudi 07 Mai 2026
Heure UTC1 Température [°C] Vent [km/h] Hum. [%] Pres.4 [hPa] Visi. [Km] Nébu. [octa] Préc.5 [mm] Cond.
2m. Res. Ros. Dir.2 Vit. Moy. Raf.3
23:00 11.6 11.6 5.7 ENE 3.7 3.7 13.0 67 1017.3(0.6/3h) 20 7/8 -- --
22:00 12.1 12.1 5.2 E 1.9 3.7 14.8 63 1017.3(0.9/3h) 20 7/8 -- --
21:00 12.2 12.2 5.1 E 3.7 5.6 13.0 62 1017.1(0.9/3h) 20 7/8 -- --
20:00 12.5 12.4 5.3 ENE 5.6 5.6 11.1 61 1016.6(0.7/3h) 20 7/8 -- --
19:00 12.8 12.8 4.9 NE 5.6 5.6 7.4 59 1016.3(0.3/3h) 20 7/8 -- --
18:00 13.5 13.5 5.2 N 3.7 5.6 13.0 57 1016.1(0.1/3h) 20 7/8 0/12h
--
17:00 14.0 14.0 4.5 N 3.7 3.7 5.6 53 1015.8(-0.2/3h) 20 7/8 -- --
16:00 14.4 14.4 4.7 NNO 3.7 3.7 7.4 52 1015.9(-0.2/3h) 20 7/8 -- --
15:00 14.4 14.4 4.4 N 1.9 5.6 13.0 51 1015.9(0.1/3h) 20 7/8 -- --
14:00 14.1 14.1 5.1 NNE 3.7 5.6 7.4 55 1016.1(0.0/3h) 20 7/8 -- --
13:00 13.8 13.8 5.2 N 3.7 3.7 13.0 56 1016.2(0.3/3h) 20 5/8 -- --
12:00 12.9 12.9 5.4 NNE 3.7 5.6 9.3 60 1016.1(0.3/3h) 20 3/8 0/6h
--
11:00 13.5 13.5 5.3 NNO 1.9 5.6 9.3 58 1016.1(0.6/3h) 20 4/8 -- --
10:00 12.9 12.9 7.1 NO 3.7 5.6 9.3 68 1015.9(0.7/3h) 20 4/8 -- --
09:00 11.2 11.2 6.6 NO 3.7 3.7 9.3 73 1015.9(1.0/3h) 20 5/8 -- --
08:00 10.6 10.6 6.8 NNO 3.7 3.7 9.3 77 1015.6(1.3/3h) 20 4/8 -- --
07:00 9.1 9.1 6.7 N 3.7 3.7 5.6 85 1015.5(1.6/3h) 20 7/8 -- --
06:00 8.6 8.6 6.9 NO 1.9 5.6 7.4 89 1015.1(1.4/3h) 20 8/8 0/12h
--
05:00 7.9 7.9 6.6 O 1.9 3.7 5.6 91 1014.5(1.0/3h) 20 7/8 -- --
04:00 8.4 8.4 6.2 NNO 3.7 3.7 5.6 86 1013.9(0.6/3h) 20 7/8 -- --
03:00 7.9 7.9 6.4 NO 3.7 5.6 7.4 90 1013.7(0.6/3h) 20 7/8 -- --
02:00 8.0 8.0 6.2 NO 1.9 1.9 5.6 88 1013.5(0.7/3h) 20 7/8 -- --
01:00 7.9 7.9 6.2 N 3.7 5.6 7.4 89 1013.3(1.1/3h) 20 7/8 -- --
00:00 8.2 8.2 6.5 N 3.7 7.4 11.1 89 1013.1(1.2/3h) 12 7/8 0/6h
13.1/24h
Etat du ciel inchangé

1 Coordinated Universal Time. Actuellement il est 18:00 locale et 16:00 UTC.

2 Le vent souffle depuis la direction indiquée vers la direction oposée.

3 Les rafales max. sont disponible 40 min après l'heure du relevé.

4 Pour les stations d'altitude (plus de 600m) le géopotentiel du niveau le plus proche de la pression obligatoire est indiqué.

5 Les stations disposant d'un diffuseur peuvent indiquer "trace". Cela signifie que des précipitations ont touchés le sol mais que la quantité est inférieure à 0.1 mm.

Récapitulatif de la journée
Température [°C] Vent [km/h] Ensoleillement4 [h] Precipitations totale5 [mm] Pression [Hpa]
Min1 Max.2 Moy.3 Max. Min Max.
7.8 14.8 4.7 14.8 0 h 0 min 0 1013.1 1017.3

1 Température minimale relevée entre 18:00 UTC la veille et 18:00 UTC le jour donné.

2 Température maximale relevée entre 06:00 UTC le jour donné et 06:00 UTC le lendemain.

3 Vent moyen de la journée basé sur les relevés horaires.

4 Ensoleillement en heures relevé entre 06:00 UTC la veille et 06:00 UTC le jour donné.

5 Précipitations totales tombées entre 06:00 UTC la jour donné et 06:00 UTC le lendemain.

Graphiques horaires